createdAt,value
2019-05-13T00:00:14.404Z,58.07
2019-05-13T00:02:46.455Z,58.09
2019-05-13T00:05:18.656Z,58.22
2019-05-13T00:07:50.534Z,58.59
2019-05-13T00:10:24.201Z,58.71
2019-05-13T00:12:55.320Z,58.97
2019-05-13T00:15:27.318Z,59.28
2019-05-13T00:17:59.211Z,59.79
2019-05-13T00:20:30.669Z,59.87
2019-05-13T00:23:03.909Z,59.70
2019-05-13T00:25:36.037Z,59.90
2019-05-13T00:28:07.830Z,59.95
2019-05-13T00:30:39.691Z,60.28
2019-05-13T00:33:13.765Z,59.55
2019-05-13T00:35:45.069Z,60.43
2019-05-13T00:38:17.447Z,60.87
2019-05-13T00:40:49.017Z,60.63
2019-05-13T00:43:20.742Z,60.73
2019-05-13T00:45:53.455Z,61.35
2019-05-13T00:48:26.009Z,61.66
2019-05-13T00:50:58.798Z,61.10
2019-05-13T00:53:30.835Z,61.49
2019-05-13T00:56:04.021Z,61.91
2019-05-13T00:58:37.029Z,61.84
2019-05-13T01:01:09.900Z,62.05
2019-05-13T01:03:44.031Z,62.06
2019-05-13T01:06:15.105Z,62.18
2019-05-13T01:08:46.961Z,62.70
2019-05-13T01:11:19.519Z,62.88
2019-05-13T01:13:53.608Z,62.65
2019-05-13T01:16:25.331Z,63.04
2019-05-13T01:18:57.509Z,63.02
2019-05-13T01:21:29.598Z,63.29
2019-05-13T01:24:03.779Z,63.04
2019-05-13T01:26:34.873Z,63.69
2019-05-13T01:29:06.528Z,63.64
2019-05-13T01:31:38.689Z,64.01
2019-05-13T01:34:10.650Z,64.08
2019-05-13T01:36:44.455Z,64.03
2019-05-13T01:39:16.632Z,64.41
2019-05-13T01:41:49.006Z,64.62
2019-05-13T01:44:20.548Z,64.45
2019-05-13T01:46:53.779Z,64.65
2019-05-13T01:49:25.477Z,64.80
2019-05-13T01:51:58.082Z,64.75
2019-05-13T01:54:29.947Z,65.11
2019-05-13T01:57:04.483Z,65.23
2019-05-13T01:59:36.596Z,65.63
2019-05-13T02:02:08.815Z,65.41
2019-05-13T02:04:40.329Z,65.54
2019-05-13T02:07:13.811Z,65.42
2019-05-13T02:09:46.021Z,66.17
2019-05-13T02:12:19.078Z,65.77
2019-05-13T02:14:50.736Z,65.56
2019-05-13T02:17:23.574Z,65.34
2019-05-13T02:19:56.010Z,64.67
2019-05-13T02:22:28.387Z,64.20
2019-05-13T02:25:00.934Z,65.28
2019-05-13T02:27:34.496Z,65.90
2019-05-13T02:30:06.074Z,65.33
2019-05-13T02:32:38.149Z,64.39
2019-05-13T02:35:13.884Z,64.83
2019-05-13T02:37:44.004Z,65.07
2019-05-13T02:40:16.298Z,66.08
2019-05-13T02:42:48.010Z,67.08
2019-05-13T02:45:22.723Z,67.69
2019-05-13T02:47:54.225Z,68.28
2019-05-13T02:50:25.842Z,68.44
2019-05-13T02:52:57.961Z,67.98
2019-05-13T02:55:32.886Z,68.00
2019-05-13T02:58:03.860Z,68.40
2019-05-13T03:00:35.700Z,68.51
2019-05-13T03:03:07.375Z,68.88
2019-05-13T03:05:39.092Z,69.39
2019-05-13T03:08:12.829Z,69.36
2019-05-13T03:10:43.647Z,69.61
2019-05-13T03:13:15.718Z,69.73
2019-05-13T03:15:54.859Z,69.79
2019-05-13T03:18:26.793Z,69.63
2019-05-13T03:20:58.977Z,69.85
2019-05-13T03:23:32.760Z,69.87
2019-05-13T03:26:05.020Z,69.20
2019-05-13T03:28:36.616Z,69.01
2019-05-13T03:31:08.191Z,69.34
2019-05-13T03:33:45.324Z,69.73
2019-05-13T03:36:16.426Z,70.00
2019-05-13T03:39:01.712Z,70.01
2019-05-13T03:41:22.901Z,70.10
2019-05-13T03:43:57.164Z,70.65
2019-05-13T03:46:33.386Z,70.83
2019-05-13T03:49:05.615Z,71.30
2019-05-13T03:51:38.674Z,71.30
2019-05-13T03:54:12.651Z,70.96
2019-05-13T03:56:43.951Z,70.97
2019-05-13T03:59:16.102Z,71.08
2019-05-13T04:01:47.962Z,71.04
2019-05-13T04:04:23.456Z,70.76
2019-05-13T04:06:53.300Z,70.67
2019-05-13T04:09:31.251Z,70.64
2019-05-13T04:11:58.015Z,70.78
2019-05-13T04:14:33.038Z,71.25
2019-05-13T04:17:03.232Z,71.00
2019-05-13T04:19:36.082Z,70.79
2019-05-13T04:22:08.368Z,70.57
2019-05-13T04:24:42.671Z,70.75
2019-05-13T04:27:14.238Z,70.44
2019-05-13T04:29:46.720Z,70.82
2019-05-13T04:32:18.815Z,71.30
2019-05-13T04:34:52.835Z,71.45
2019-05-13T04:37:24.339Z,71.14
2019-05-13T04:39:56.800Z,71.08
2019-05-13T04:42:28.508Z,71.02
2019-05-13T04:45:02.958Z,70.62
2019-05-13T04:47:35.395Z,70.25
2019-05-13T04:50:08.353Z,70.42
2019-05-13T04:52:42.382Z,70.72
2019-05-13T04:55:15.563Z,70.85
2019-05-13T04:57:47.410Z,70.88
2019-05-13T05:00:32.324Z,70.46
2019-05-13T05:03:41.394Z,70.67
2019-05-13T05:06:18.179Z,70.33
2019-05-13T05:10:02.759Z,70.10
2019-05-13T05:12:42.789Z,70.29
2019-05-13T05:15:58.428Z,70.24
2019-05-13T05:19:02.248Z,69.84
2019-05-13T05:21:41.720Z,69.55
2019-05-13T05:24:52.145Z,68.82
2019-05-13T05:27:48.116Z,68.08
2019-05-13T05:30:59.499Z,67.46
2019-05-13T05:33:56.690Z,66.78
2019-05-13T05:36:58.218Z,66.69
2019-05-13T05:39:31.550Z,66.54
2019-05-13T05:42:03.975Z,66.30
2019-05-13T05:44:37.434Z,66.25
2019-05-13T05:47:11.233Z,66.30
2019-05-13T05:49:45.198Z,65.79
2019-05-13T05:52:17.889Z,65.39
2019-05-13T05:54:51.936Z,64.97
2019-05-13T05:57:25.245Z,64.16
2019-05-13T05:59:57.262Z,64.16
2019-05-13T06:02:32.039Z,64.31
2019-05-13T06:05:03.570Z,63.88
2019-05-13T06:07:36.106Z,63.29
2019-05-13T06:10:07.880Z,63.29
2019-05-13T06:12:42.178Z,62.92
2019-05-13T06:15:12.890Z,62.77
2019-05-13T06:17:44.981Z,62.41
2019-05-13T06:20:16.304Z,62.04
2019-05-13T06:22:48.084Z,61.00
2019-05-13T06:25:23.167Z,60.88
2019-05-13T06:27:53.319Z,60.64
2019-05-13T06:30:25.621Z,60.75
2019-05-13T06:32:57.877Z,60.70
2019-05-13T06:35:29.517Z,60.41
2019-05-13T06:38:01.647Z,59.78
2019-05-13T06:40:33.357Z,59.52
2019-05-13T06:43:05.210Z,59.18
2019-05-13T06:45:37.165Z,59.29
2019-05-13T06:48:08.826Z,59.05
2019-05-13T06:50:41.713Z,58.92
2019-05-13T06:53:13.449Z,58.47
2019-05-13T06:55:45.231Z,57.74
2019-05-13T06:58:17.137Z,57.75
2019-05-13T07:00:51.648Z,57.23
2019-05-13T07:03:22.505Z,56.98
2019-05-13T07:05:55.002Z,56.62
2019-05-13T07:08:26.381Z,55.22
2019-05-13T07:10:58.450Z,55.11
2019-05-13T07:13:32.310Z,56.11
2019-05-13T07:16:03.563Z,55.18
2019-05-13T07:18:35.592Z,55.36
2019-05-13T07:21:07.619Z,54.83
2019-05-13T07:23:42.229Z,54.27
2019-05-13T07:26:14.765Z,54.02
2019-05-13T07:28:46.988Z,53.98
2019-05-13T07:31:18.751Z,53.08
2019-05-13T07:33:51.724Z,54.09
2019-05-13T07:36:24.058Z,54.17
2019-05-13T07:38:55.829Z,53.59
2019-05-13T07:41:36.441Z,52.38
2019-05-13T07:44:02.668Z,52.59
2019-05-13T07:46:34.332Z,52.97
2019-05-13T07:49:05.955Z,51.72
2019-05-13T07:51:37.683Z,51.42
2019-05-13T07:54:11.384Z,51.13
2019-05-13T07:56:42.845Z,50.95
2019-05-13T07:59:14.667Z,51.46
2019-05-13T08:01:46.299Z,48.98
2019-05-13T08:04:22.760Z,48.17
2019-05-13T08:06:52.380Z,48.56
2019-05-13T08:09:24.785Z,48.35
2019-05-13T08:12:06.515Z,48.01
2019-05-13T08:14:32.395Z,47.30
2019-05-13T08:17:03.103Z,48.17
2019-05-13T08:19:34.930Z,48.32
2019-05-13T08:22:06.175Z,46.88
2019-05-13T08:24:42.482Z,46.92
2019-05-13T08:27:13.074Z,47.36
2019-05-13T08:29:45.457Z,45.73
2019-05-13T08:32:17.342Z,44.84
2019-05-13T08:34:57.915Z,44.70
2019-05-13T08:37:22.126Z,45.56
2019-05-13T08:39:54.265Z,46.66
2019-05-13T08:42:26.123Z,46.16
2019-05-13T08:44:57.927Z,45.53
2019-05-13T08:47:31.407Z,45.39
2019-05-13T08:50:04.327Z,43.84
2019-05-13T08:52:37.837Z,43.72
2019-05-13T08:55:13.513Z,43.30
2019-05-13T08:57:42.955Z,42.85
2019-05-13T09:00:14.998Z,43.34
2019-05-13T09:02:47.915Z,43.89
2019-05-13T09:05:21.562Z,43.17
2019-05-13T09:07:53.166Z,43.92
2019-05-13T09:10:24.729Z,42.46
2019-05-13T09:12:56.636Z,42.40
2019-05-13T09:15:28.640Z,42.61
2019-05-13T09:18:02.364Z,41.67
2019-05-13T09:20:36.127Z,41.79
2019-05-13T09:23:07.816Z,41.20
2019-05-13T09:25:41.642Z,42.12
2019-05-13T09:28:13.476Z,41.76
2019-05-13T09:30:45.048Z,40.22
2019-05-13T09:33:17.154Z,40.36
2019-05-13T09:35:50.987Z,40.61
2019-05-13T09:38:22.740Z,41.27
2019-05-13T09:40:53.964Z,40.58
2019-05-13T09:43:25.878Z,39.82
2019-05-13T09:45:57.400Z,39.41
2019-05-13T09:48:31.738Z,38.66
2019-05-13T09:51:02.877Z,38.51
2019-05-13T09:53:34.585Z,39.94
2019-05-13T09:56:06.142Z,38.89
2019-05-13T09:58:37.912Z,37.83
2019-05-13T10:01:11.602Z,37.47
2019-05-13T10:03:53.764Z,37.47
2019-05-13T10:06:16.420Z,36.75
2019-05-13T10:08:48.320Z,36.37
2019-05-13T10:11:21.764Z,35.37
2019-05-13T10:13:53.129Z,35.35
2019-05-13T10:16:24.971Z,32.99
2019-05-13T10:18:57.169Z,33.13
2019-05-13T10:21:28.990Z,32.64
2019-05-13T10:24:00.630Z,32.17
2019-05-13T10:26:33.114Z,31.60
2019-05-13T10:29:04.329Z,33.54
2019-05-13T10:31:36.085Z,32.79
2019-05-13T10:34:07.656Z,34.26
2019-05-13T10:36:42.127Z,34.15
2019-05-13T10:39:13.096Z,33.15
2019-05-13T10:41:45.483Z,32.96
2019-05-13T10:44:18.347Z,31.96
2019-05-13T10:46:52.191Z,31.56
2019-05-13T10:49:23.401Z,31.85
2019-05-13T10:51:55.546Z,31.79
2019-05-13T10:54:27.183Z,32.05
2019-05-13T10:56:59.910Z,33.90
2019-05-13T10:59:32.998Z,32.65
2019-05-13T11:02:04.957Z,31.61
2019-05-13T11:04:36.712Z,31.10
2019-05-13T11:07:08.671Z,31.16
2019-05-13T11:09:41.753Z,30.75
2019-05-13T11:12:13.310Z,30.17
2019-05-13T11:14:46.721Z,31.79
2019-05-13T11:17:23.288Z,31.82
2019-05-13T11:19:51.424Z,29.63
2019-05-13T11:22:23.128Z,30.69
2019-05-13T11:24:54.658Z,32.10
2019-05-13T11:27:26.529Z,32.40
2019-05-13T11:29:57.744Z,32.23
2019-05-13T11:32:31.710Z,31.94
2019-05-13T11:35:03.249Z,32.60
2019-05-13T11:37:34.799Z,32.80
2019-05-13T11:40:06.330Z,30.97
2019-05-13T11:42:38.405Z,31.51
2019-05-13T11:45:11.749Z,30.45
2019-05-13T11:47:45.030Z,31.15
2019-05-13T11:50:17.005Z,31.22
2019-05-13T11:52:48.005Z,31.62
2019-05-13T11:55:22.967Z,31.49
2019-05-13T11:57:53.359Z,31.62
2019-05-13T12:00:53.164Z,30.42
2019-05-13T12:03:24.279Z,30.61
2019-05-13T12:05:55.732Z,30.66
2019-05-13T12:08:27.204Z,31.33
2019-05-13T12:10:58.759Z,31.90
2019-05-13T12:13:32.794Z,31.88
2019-05-13T12:16:04.139Z,30.51
2019-05-13T12:18:43.177Z,30.94
2019-05-13T12:21:11.749Z,30.54
2019-05-13T12:23:42.988Z,32.25
2019-05-13T12:26:15.972Z,31.53
2019-05-13T12:28:47.807Z,30.56
2019-05-13T12:31:22.322Z,29.31
2019-05-13T12:33:52.848Z,27.60
2019-05-13T12:36:24.162Z,28.06
2019-05-13T12:38:57.511Z,27.83
2019-05-13T12:41:33.055Z,28.22
2019-05-13T12:44:02.770Z,28.11
2019-05-13T12:46:35.031Z,27.08
2019-05-13T12:49:06.887Z,28.21
2019-05-13T12:51:38.810Z,28.45
2019-05-13T12:54:13.550Z,27.76
2019-05-13T12:56:44.280Z,27.62
2019-05-13T12:59:16.514Z,28.84
2019-05-13T13:01:48.265Z,29.38
2019-05-13T13:04:23.624Z,29.93
2019-05-13T13:06:53.446Z,28.50
2019-05-13T13:09:25.325Z,27.85
2019-05-13T13:11:57.470Z,28.28
2019-05-13T13:14:36.300Z,28.62
2019-05-13T13:17:04.078Z,27.84
2019-05-13T13:19:35.971Z,27.32
2019-05-13T13:22:08.064Z,27.84
2019-05-13T13:24:48.384Z,28.24
2019-05-13T13:27:20.807Z,28.12
2019-05-13T13:29:47.253Z,28.74
2019-05-13T13:32:19.096Z,28.04
2019-05-13T13:34:54.834Z,27.90
2019-05-13T13:37:24.324Z,27.35
2019-05-13T13:39:55.514Z,26.38
2019-05-13T13:42:27.546Z,26.51
2019-05-13T13:44:59.069Z,26.34
2019-05-13T13:47:33.216Z,25.84
2019-05-13T13:50:04.112Z,24.71
2019-05-13T13:52:35.375Z,26.06
2019-05-13T13:55:08.905Z,25.86
2019-05-13T13:57:44.816Z,25.58
2019-05-13T14:00:31.776Z,24.24
2019-05-13T14:02:47.447Z,24.42
2019-05-13T14:05:18.852Z,23.66
2019-05-13T14:07:52.198Z,24.15
2019-05-13T14:10:23.247Z,24.31
2019-05-13T14:12:54.878Z,24.00
2019-05-13T14:15:26.186Z,23.65
2019-05-13T14:17:58.063Z,23.38
2019-05-13T14:20:29.343Z,23.26
2019-05-13T14:23:02.776Z,23.31
2019-05-13T14:25:34.779Z,22.75
2019-05-13T14:28:06.529Z,22.13
2019-05-13T14:30:38.204Z,22.71
2019-05-13T14:33:09.575Z,22.29
2019-05-13T14:35:41.689Z,22.47
2019-05-13T14:38:13.181Z,22.93
2019-05-13T14:40:45.009Z,22.73
2019-05-13T14:43:17.524Z,22.64
2019-05-13T14:45:52.223Z,22.89
2019-05-13T14:48:23.986Z,22.96
2019-05-13T14:50:54.912Z,23.39
2019-05-13T14:53:27.054Z,23.19
2019-05-13T14:55:58.815Z,23.30
2019-05-13T14:58:32.431Z,22.92
2019-05-13T15:01:17.757Z,22.99
2019-05-13T15:03:37.260Z,23.20
2019-05-13T15:06:11.801Z,22.53
2019-05-13T15:08:42.922Z,22.39
2019-05-13T15:11:14.693Z,22.49
2019-05-13T15:13:47.585Z,22.33
2019-05-13T15:16:22.130Z,22.58
2019-05-13T15:18:53.419Z,22.84
2019-05-13T15:21:24.975Z,23.09
2019-05-13T15:23:56.489Z,22.56
2019-05-13T15:26:28.136Z,23.25
2019-05-13T15:29:04.664Z,23.01
2019-05-13T15:31:33.424Z,22.88
2019-05-13T15:34:04.868Z,23.14
2019-05-13T15:36:36.570Z,22.98
2019-05-13T15:39:08.310Z,23.54
2019-05-13T15:41:41.758Z,23.82
2019-05-13T15:44:13.179Z,23.30
2019-05-13T15:46:44.925Z,23.59
2019-05-13T15:49:16.384Z,23.59
2019-05-13T15:51:48.336Z,23.67
2019-05-13T15:54:22.148Z,23.66
2019-05-13T15:56:53.470Z,23.66
2019-05-13T15:59:25.030Z,24.16
2019-05-13T16:01:56.664Z,24.05
2019-05-13T16:04:27.722Z,24.05
2019-05-13T16:07:01.698Z,24.54
2019-05-13T16:09:33.205Z,24.37
2019-05-13T16:12:04.705Z,24.33
2019-05-13T16:14:36.997Z,24.29
2019-05-13T16:17:08.874Z,24.15
2019-05-13T16:19:42.027Z,24.28
2019-05-13T16:22:14.022Z,24.25
2019-05-13T16:24:45.719Z,24.79
2019-05-13T16:27:17.091Z,25.36
2019-05-13T16:29:51.382Z,25.21
2019-05-13T16:32:23.447Z,25.08
2019-05-13T16:34:55.050Z,25.27
2019-05-13T16:37:26.306Z,24.86
2019-05-13T16:39:57.552Z,24.79
2019-05-13T16:42:31.186Z,25.57
2019-05-13T16:45:03.473Z,25.81
2019-05-13T16:47:36.206Z,25.61
2019-05-13T16:50:11.316Z,25.76
2019-05-13T16:52:42.719Z,25.41
2019-05-13T16:55:14.471Z,25.49
2019-05-13T16:57:46.450Z,25.29
2019-05-13T17:00:18.789Z,25.78
2019-05-13T17:02:51.825Z,25.48
2019-05-13T17:05:23.841Z,25.58
2019-05-13T17:07:55.843Z,25.42
2019-05-13T17:10:27.870Z,25.00
2019-05-13T17:13:02.968Z,25.42
2019-05-13T17:15:33.513Z,25.34
2019-05-13T17:18:11.665Z,25.16
2019-05-13T17:20:38.907Z,25.91
2019-05-13T17:23:12.427Z,25.91
2019-05-13T17:25:44.343Z,25.69
2019-05-13T17:28:16.390Z,26.30
2019-05-13T17:30:47.712Z,26.69
2019-05-13T17:33:22.871Z,26.91
2019-05-13T17:35:52.830Z,27.27
2019-05-13T17:38:25.053Z,27.32
2019-05-13T17:40:56.502Z,27.53
2019-05-13T17:43:28.109Z,27.61
2019-05-13T17:45:59.394Z,27.94
2019-05-13T17:48:32.913Z,28.16
2019-05-13T17:51:04.944Z,28.78
2019-05-13T17:53:36.743Z,29.34
2019-05-13T17:56:08.111Z,29.92
2019-05-13T17:58:42.055Z,30.34
2019-05-13T18:01:14.617Z,30.51
2019-05-13T18:03:46.682Z,30.58
2019-05-13T18:06:18.313Z,30.92
2019-05-13T18:08:51.756Z,31.51
2019-05-13T18:11:24.869Z,31.55
2019-05-13T18:13:56.640Z,31.88
2019-05-13T18:16:28.204Z,32.34
2019-05-13T18:19:00.379Z,32.81
2019-05-13T18:21:32.362Z,33.23
2019-05-13T18:24:04.588Z,33.70
2019-05-13T18:26:36.175Z,33.76
2019-05-13T18:29:08.036Z,34.09
2019-05-13T18:31:41.817Z,34.23
2019-05-13T18:34:12.668Z,34.50
2019-05-13T18:36:44.248Z,34.87
2019-05-13T18:39:15.922Z,35.23
2019-05-13T18:41:48.123Z,35.46
2019-05-13T18:44:19.828Z,35.94
2019-05-13T18:46:52.408Z,36.07
2019-05-13T18:49:25.349Z,36.32
2019-05-13T18:51:57.467Z,36.63
2019-05-13T18:54:31.585Z,36.97
2019-05-13T18:57:03.393Z,37.30
2019-05-13T18:59:35.060Z,37.48
2019-05-13T19:02:06.886Z,37.49
2019-05-13T19:04:38.525Z,37.57
2019-05-13T19:07:10.623Z,37.33
2019-05-13T19:09:42.539Z,37.72
2019-05-13T19:12:15.407Z,37.66
2019-05-13T19:14:46.944Z,37.81
2019-05-13T19:17:18.874Z,37.83
2019-05-13T19:19:51.488Z,38.07
2019-05-13T19:22:23.486Z,38.13
2019-05-13T19:24:55.923Z,38.32
2019-05-13T19:27:27.632Z,38.77
2019-05-13T19:30:01.239Z,39.14
2019-05-13T19:32:32.520Z,39.70
2019-05-13T19:35:03.679Z,40.17
2019-05-13T19:37:36.371Z,40.81
2019-05-13T19:40:09.304Z,41.16
2019-05-13T19:42:41.973Z,41.48
2019-05-13T19:45:17.230Z,41.99
2019-05-13T19:47:48.770Z,42.45
2019-05-13T19:50:22.387Z,42.66
2019-05-13T19:52:54.224Z,43.00
2019-05-13T19:55:27.127Z,43.36
2019-05-13T19:57:58.945Z,44.03
2019-05-13T20:00:31.597Z,43.99
2019-05-13T20:03:02.890Z,44.31
2019-05-13T20:05:34.598Z,44.60
2019-05-13T20:08:06.665Z,44.99
2019-05-13T20:10:38.637Z,45.64
2019-05-13T20:13:11.277Z,45.90
2019-05-13T20:15:43.348Z,46.47
2019-05-13T20:18:15.505Z,46.59
2019-05-13T20:20:47.450Z,46.88
2019-05-13T20:23:21.327Z,46.85
2019-05-13T20:25:53.173Z,47.39
2019-05-13T20:28:24.939Z,47.51
2019-05-13T20:30:56.857Z,47.77
2019-05-13T20:33:28.933Z,47.85
2019-05-13T20:36:01.631Z,48.38
2019-05-13T20:38:33.387Z,48.43
2019-05-13T20:41:05.325Z,48.92
2019-05-13T20:43:36.976Z,49.13
2019-05-13T20:46:08.640Z,49.35
2019-05-13T20:48:41.201Z,49.50
2019-05-13T20:51:13.507Z,49.91
2019-05-13T20:53:45.594Z,49.90
2019-05-13T20:56:17.502Z,50.12
2019-05-13T20:58:51.330Z,50.52
2019-05-13T21:01:23.641Z,50.72
2019-05-13T21:03:56.082Z,51.06
2019-05-13T21:06:27.941Z,51.05
2019-05-13T21:09:01.502Z,51.24
2019-05-13T21:11:35.534Z,51.61
2019-05-13T21:14:07.637Z,51.76
2019-05-13T21:16:41.603Z,51.84
2019-05-13T21:19:13.151Z,51.89
2019-05-13T21:21:44.962Z,52.40
2019-05-13T21:24:16.746Z,52.65
2019-05-13T21:26:51.099Z,53.01
2019-05-13T21:29:22.063Z,53.15
2019-05-13T21:31:54.070Z,53.50
2019-05-13T21:34:26.040Z,53.60
2019-05-13T21:36:58.412Z,53.68
2019-05-13T21:39:31.986Z,54.05
2019-05-13T21:42:03.849Z,54.17
2019-05-13T21:44:35.970Z,54.48
2019-05-13T21:47:08.064Z,54.75
2019-05-13T21:49:42.154Z,54.86
2019-05-13T21:52:13.644Z,54.78
2019-05-13T21:54:45.517Z,55.01
2019-05-13T21:57:17.280Z,55.27
2019-05-13T21:59:48.848Z,55.66
2019-05-13T22:02:23.248Z,56.03
2019-05-13T22:04:54.812Z,56.22
2019-05-13T22:07:26.126Z,56.16
2019-05-13T22:09:58.700Z,56.61
2019-05-13T22:12:32.029Z,56.51
2019-05-13T22:15:03.259Z,56.65
2019-05-13T22:17:36.233Z,56.98
2019-05-13T22:20:08.624Z,57.25
2019-05-13T22:22:41.516Z,57.18
2019-05-13T22:25:13.631Z,57.77
2019-05-13T22:27:45.620Z,57.82
2019-05-13T22:30:17.290Z,57.91
2019-05-13T22:32:49.549Z,58.16
2019-05-13T22:35:21.862Z,58.16
2019-05-13T22:37:54.070Z,58.13
2019-05-13T22:40:25.953Z,58.45
2019-05-13T22:42:57.794Z,58.80
2019-05-13T22:45:31.298Z,58.70
2019-05-13T22:48:03.977Z,59.04
2019-05-13T22:50:36.089Z,58.79
2019-05-13T22:53:07.794Z,59.13
2019-05-13T22:55:41.617Z,59.24
2019-05-13T22:58:13.274Z,59.23
2019-05-13T23:00:45.109Z,59.15
2019-05-13T23:03:18.824Z,59.29
2019-05-13T23:05:52.185Z,59.65
2019-05-13T23:08:23.895Z,59.52
2019-05-13T23:10:55.645Z,59.68
2019-05-13T23:13:26.801Z,60.12
2019-05-13T23:15:59.042Z,60.19
2019-05-13T23:18:31.613Z,60.49
2019-05-13T23:21:03.396Z,60.69
2019-05-13T23:23:35.332Z,60.63
2019-05-13T23:26:06.920Z,60.97
2019-05-13T23:28:38.933Z,61.13
2019-05-13T23:31:12.337Z,60.97
2019-05-13T23:33:44.408Z,60.99
2019-05-13T23:36:16.584Z,61.20
2019-05-13T23:38:48.340Z,61.57
2019-05-13T23:41:21.812Z,61.64
2019-05-13T23:43:55.049Z,61.62
2019-05-13T23:46:26.630Z,61.65
2019-05-13T23:48:58.044Z,61.55
2019-05-13T23:51:32.054Z,62.01
2019-05-13T23:54:03.486Z,62.09
2019-05-13T23:56:35.224Z,61.88
2019-05-13T23:59:07.674Z,61.93
